Arcola, Pennsylvania
Current Conditions -  °F | °C
As of 8:54 AM on Sunday 21 Dec 2014 (Local Time) from KPTW Reporting Station
Overcast Overcast  
Wind Chill: -1°   Ceiling: 3200
Heat Index: -1°   Visibility: 8mi
Dew Point: -4°   Wind: 0mph
Humidity: 76%   Direction: NA
Pressure: 30.34"   Gusts: NA
Location:  40.15°N, 75.46°W
Report Text: KPTW 211354Z AUTO 00000KT 8SM OVC032 M01/M04 A3034 RMK AO2 SLP273 T10061044
Loading
Personal Weather Stations






























Interactive Weather Map New forecast layout! Learn more

10-Day Weather Forecast

Advertisements
Track Severe Weather on mobile